Time;durP1;ratioP1;P1;durP2;ratioP2;P2;SDS_P1;SDS_P2;PMS_P1;PMS_P2;Temp;Humidity;BMP_temperature;BMP_pressure;BME280_temperature;BME280_humidity;BME280_pressure;Samples;Min_cycle;Max_cycle;Signal;HPM_P1;HPM_P2
2022/11/12 00:02:40;;;;;;;105.65;42.35;;;;;;;;;;6314370;28;20044;-66
2022/11/12 00:05:41;;;;;;;108.28;41.15;;;;;;;;;;6312371;28;20044;-61
2022/11/12 00:08:42;;;;;;;110.75;45.67;;;;;;;;;;6309049;28;20478;-62
2022/11/12 00:11:42;;;;;;;118.18;46.28;;;;;;;;;;6303821;28;20055;-64
2022/11/12 00:14:43;;;;;;;108.03;43.80;;;;;;;;;;6307954;28;20082;-62
2022/11/12 00:17:44;;;;;;;102.85;39.60;;;;;;;;;;6309397;28;20101;-59
2022/11/12 00:20:44;;;;;;;98.30;39.13;;;;;;;;;;6307197;28;20055;-61
2022/11/12 00:23:45;;;;;;;98.70;37.90;;;;;;;;;;6312692;28;20047;-63
2022/11/12 00:26:45;;;;;;;106.60;42.35;;;;;;;;;;6316514;28;20149;-62
2022/11/12 00:29:46;;;;;;;102.40;42.58;;;;;;;;;;6315773;28;20124;-62
2022/11/12 00:32:47;;;;;;;111.95;45.72;;;;;;;;;;6312227;28;20098;-61
2022/11/12 00:35:47;;;;;;;102.40;43.75;;;;;;;;;;6305593;28;20044;-61
2022/11/12 00:38:48;;;;;;;101.22;41.15;;;;;;;;;;6302158;28;20457;-62
2022/11/12 00:41:49;;;;;;;94.75;40.83;;;;;;;;;;6305121;28;20036;-62
2022/11/12 00:44:50;;;;;;;96.18;40.53;;;;;;;;;;6308771;28;20104;-62
2022/11/12 00:47:57;;;;;;;102.03;42.03;;;;;;;;;;6307589;28;20040;-62
2022/11/12 00:50:59;;;;;;;101.40;38.78;;;;;;;;;;6315938;28;20135;-62
2022/11/12 00:54:00;;;;;;;;;;;;;;;;;;6316215;28;20052;-61
2022/11/12 00:57:01;;;;;;;91.85;36.55;;;;;;;;;;6312625;28;19924;-62
2022/11/12 01:00:03;;;;;;;90.40;36.67;;;;;;;;;;6316798;28;20043;-61
2022/11/12 01:03:04;;;;;;;106.03;40.55;;;;;;;;;;6297998;28;20515;-61
2022/11/12 01:06:08;;;;;;;99.72;40.08;;;;;;;;;;6313337;28;20032;-62
2022/11/12 01:09:09;;;;;;;109.60;42.33;;;;;;;;;;6309513;28;20044;-62
2022/11/12 01:12:10;;;;;;;108.90;41.28;;;;;;;;;;6305346;28;20782;-62
2022/11/12 01:15:10;;;;;;;102.45;40.90;;;;;;;;;;6315069;28;20114;-63
2022/11/12 01:18:11;;;;;;;105.78;42.50;;;;;;;;;;6308340;28;20041;-62
2022/11/12 01:21:13;;;;;;;111.65;43.88;;;;;;;;;;6313383;28;20047;-61
2022/11/12 01:24:13;;;;;;;111.17;43.67;;;;;;;;;;6306094;28;20050;-62
2022/11/12 01:27:14;;;;;;;109.28;42.70;;;;;;;;;;6307490;28;20424;-62
2022/11/12 01:30:14;;;;;;;113.03;41.85;;;;;;;;;;6313452;28;20055;-62
2022/11/12 01:33:15;;;;;;;102.35;40.70;;;;;;;;;;6319277;28;20548;-62
2022/11/12 01:36:17;;;;;;;101.35;41.45;;;;;;;;;;6321403;28;20036;-62
2022/11/12 01:39:18;;;;;;;101.28;40.05;;;;;;;;;;6321139;28;20058;-62
2022/11/12 01:42:18;;;;;;;109.60;41.58;;;;;;;;;;6319613;28;20048;-63
2022/11/12 01:45:20;;;;;;;104.10;41.78;;;;;;;;;;6321136;28;20043;-62
2022/11/12 01:48:31;;;;;;;109.50;43.65;;;;;;;;;;6306556;28;20047;-62
2022/11/12 01:51:39;;;;;;;116.40;43.47;;;;;;;;;;6317960;28;20055;-61
2022/11/12 01:54:41;;;;;;;105.90;40.72;;;;;;;;;;6321091;28;20474;-62
2022/11/12 01:57:44;;;;;;;;;;;;;;;;;;6322044;28;20055;-62
2022/11/12 02:00:45;;;;;;;;;;;;;;;;;;6320189;28;19920;-62
2022/11/12 02:03:45;;;;;;;109.38;41.90;;;;;;;;;;6319521;28;19927;-62
2022/11/12 02:06:47;;;;;;;107.18;40.42;;;;;;;;;;6319084;28;20049;-62
2022/11/12 02:09:48;;;;;;;97.25;39.28;;;;;;;;;;6320947;28;20062;-61
2022/11/12 02:16:10;;;;;;;115.63;43.08;;;;;;;;;;6320575;28;20436;-61
2022/11/12 02:19:14;;;;;;;112.68;43.95;;;;;;;;;;6320217;28;20044;-61
2022/11/12 02:22:15;;;;;;;120.95;47.38;;;;;;;;;;6319498;28;20837;-61
2022/11/12 02:25:19;;;;;;;128.95;47.53;;;;;;;;;;6319325;28;20044;-62
2022/11/12 02:28:20;;;;;;;105.53;41.60;;;;;;;;;;6295695;28;20054;-64
2022/11/12 02:31:20;;;;;;;108.93;44.00;;;;;;;;;;6317129;28;20402;-63
2022/11/12 02:34:21;;;;;;;110.60;41.42;;;;;;;;;;6318313;28;20478;-64
2022/11/12 02:37:22;;;;;;;108.22;43.00;;;;;;;;;;6317979;28;20048;-62
2022/11/12 02:40:22;;;;;;;113.78;45.42;;;;;;;;;;6319784;28;20044;-64
2022/11/12 02:43:23;;;;;;;112.05;41.58;;;;;;;;;;6318557;28;20751;-62
2022/11/12 02:46:23;;;;;;;144.18;50.88;;;;;;;;;;6319547;28;20109;-64
2022/11/12 02:49:24;;;;;;;113.18;45.00;;;;;;;;;;6319612;28;20051;-62
2022/11/12 02:52:25;;;;;;;132.40;47.75;;;;;;;;;;6318987;28;20044;-64
2022/11/12 02:55:25;;;;;;;121.35;48.00;;;;;;;;;;6318522;28;20051;-61
2022/11/12 02:58:27;;;;;;;128.90;47.95;;;;;;;;;;6319297;28;20529;-62
2022/11/12 03:01:27;;;;;;;111.35;45.67;;;;;;;;;;6319286;28;20055;-62
2022/11/12 03:04:28;;;;;;;125.75;45.20;;;;;;;;;;6317879;28;20052;-61
2022/11/12 03:07:28;;;;;;;113.75;43.15;;;;;;;;;;6319071;28;20502;-62
2022/11/12 03:10:29;;;;;;;120.93;45.28;;;;;;;;;;6319163;28;20072;-64
2022/11/12 03:13:30;;;;;;;116.57;44.30;;;;;;;;;;6317512;28;20404;-62
2022/11/12 03:16:31;;;;;;;115.28;44.00;;;;;;;;;;6318237;28;20047;-62
2022/11/12 03:19:31;;;;;;;114.55;42.63;;;;;;;;;;6298309;28;20060;-61
2022/11/12 03:22:32;;;;;;;115.20;42.00;;;;;;;;;;6316770;28;20073;-62
2022/11/12 03:25:34;;;;;;;120.53;43.92;;;;;;;;;;6283866;28;20044;-61
2022/11/12 03:28:35;;;;;;;125.00;47.58;;;;;;;;;;6295703;28;20048;-62
2022/11/12 03:31:35;;;;;;;127.32;44.95;;;;;;;;;;6295815;28;20094;-62
2022/11/12 03:34:36;;;;;;;125.00;45.97;;;;;;;;;;6291882;28;20036;-62
2022/11/12 03:37:36;;;;;;;116.43;42.53;;;;;;;;;;6293140;28;20126;-61
2022/11/12 03:40:37;;;;;;;110.38;43.30;;;;;;;;;;6294364;28;20044;-63
2022/11/12 03:43:37;;;;;;;110.32;43.45;;;;;;;;;;6317823;28;20048;-62
2022/11/12 03:46:38;;;;;;;114.35;44.67;;;;;;;;;;6294855;28;20097;-62
2022/11/12 03:49:38;;;;;;;109.72;43.00;;;;;;;;;;6293615;28;20051;-62
2022/11/12 03:52:50;;;;;;;109.18;40.90;;;;;;;;;;6293215;28;20064;-62
2022/11/12 03:55:50;;;;;;;106.10;41.13;;;;;;;;;;6289278;28;20423;-62
2022/11/12 03:58:51;;;;;;;103.15;38.78;;;;;;;;;;6293832;28;20049;-62
2022/11/12 04:01:51;;;;;;;98.38;38.75;;;;;;;;;;6294877;28;20399;-64
2022/11/12 04:08:37;;;;;;;103.78;40.22;;;;;;;;;;6292094;28;20395;-62
2022/11/12 04:11:37;;;;;;;107.70;40.38;;;;;;;;;;6290868;28;20047;-62
2022/11/12 04:14:38;;;;;;;101.95;40.95;;;;;;;;;;6296651;28;20053;-62
2022/11/12 04:27:47;;;;;;;103.20;39.60;;;;;;;;;;6293749;28;20045;-62
2022/11/12 04:30:48;;;;;;;112.95;40.78;;;;;;;;;;6287483;28;20452;-61
2022/11/12 04:33:48;;;;;;;120.82;40.97;;;;;;;;;;6299690;28;20056;-61
2022/11/12 04:36:49;;;;;;;107.10;41.00;;;;;;;;;;6293366;28;20047;-61
2022/11/12 04:39:50;;;;;;;99.45;38.30;;;;;;;;;;6292929;28;20047;-61
2022/11/12 04:46:10;;;;;;;98.55;36.50;;;;;;;;;;6292859;28;20312;-61
2022/11/12 04:49:11;;;;;;;94.07;35.15;;;;;;;;;;6293420;28;20120;-62
2022/11/12 04:52:11;;;;;;;96.88;37.30;;;;;;;;;;6289608;28;20044;-62
2022/11/12 04:55:12;;;;;;;99.43;39.20;;;;;;;;;;6290814;28;20074;-61
2022/11/12 04:58:12;;;;;;;101.78;39.63;;;;;;;;;;6292849;28;20400;-62
2022/11/12 05:01:13;;;;;;;97.45;37.97;;;;;;;;;;6297558;28;20051;-61
2022/11/12 05:04:13;;;;;;;92.00;37.05;;;;;;;;;;6294818;28;20051;-62
2022/11/12 05:07:15;;;;;;;97.95;36.72;;;;;;;;;;6290301;28;20142;-61
2022/11/12 05:10:15;;;;;;;99.57;36.80;;;;;;;;;;6287927;28;20491;-61
2022/11/12 05:13:16;;;;;;;91.90;34.10;;;;;;;;;;6291055;28;20052;-61
2022/11/12 05:16:16;;;;;;;86.22;32.78;;;;;;;;;;6313747;28;20044;-61
2022/11/12 05:19:18;;;;;;;91.05;35.97;;;;;;;;;;6297892;28;20463;-66
2022/11/12 05:22:19;;;;;;;87.18;35.58;;;;;;;;;;6292847;28;20056;-62
2022/11/12 05:25:19;;;;;;;101.25;38.97;;;;;;;;;;6303186;28;20139;-61
2022/11/12 05:28:20;;;;;;;94.28;38.92;;;;;;;;;;6294183;28;20582;-61
2022/11/12 05:31:20;;;;;;;97.68;36.88;;;;;;;;;;6291568;28;20495;-62
2022/11/12 05:34:21;;;;;;;95.10;36.40;;;;;;;;;;6290406;28;20040;-61
2022/11/12 05:37:22;;;;;;;81.68;34.33;;;;;;;;;;6291856;28;20055;-61
2022/11/12 05:40:22;;;;;;;94.13;35.83;;;;;;;;;;6285495;28;20076;-66
2022/11/12 05:43:23;;;;;;;102.25;37.83;;;;;;;;;;6294217;28;20057;-62
2022/11/12 05:46:23;;;;;;;99.22;38.33;;;;;;;;;;6289722;28;20036;-62
2022/11/12 05:49:24;;;;;;;101.25;39.20;;;;;;;;;;6271898;28;20048;-63
2022/11/12 05:52:25;;;;;;;92.72;37.60;;;;;;;;;;6292594;28;20055;-61
2022/11/12 05:55:25;;;;;;;83.80;36.58;;;;;;;;;;6289530;28;20044;-61
2022/11/12 05:58:26;;;;;;;92.70;38.00;;;;;;;;;;6314673;28;20059;-61
2022/11/12 06:01:26;;;;;;;90.57;37.05;;;;;;;;;;6301649;28;20045;-61
2022/11/12 06:04:27;;;;;;;91.25;36.83;;;;;;;;;;6296425;28;20049;-62
2022/11/12 06:07:28;;;;;;;101.65;38.35;;;;;;;;;;6290141;28;20057;-61
2022/11/12 06:10:28;;;;;;;98.78;38.50;;;;;;;;;;6289959;28;20059;-64
2022/11/12 06:13:29;;;;;;;102.20;39.83;;;;;;;;;;6296399;28;20221;-61
2022/11/12 06:16:31;;;;;;;93.13;37.47;;;;;;;;;;6296541;28;20044;-61
2022/11/12 06:19:32;;;;;;;105.57;40.03;;;;;;;;;;6302029;28;20054;-61
2022/11/12 06:22:32;;;;;;;110.45;39.33;;;;;;;;;;6294940;28;20047;-61
2022/11/12 06:25:33;;;;;;;113.22;40.80;;;;;;;;;;6294727;28;20041;-61
2022/11/12 06:28:34;;;;;;;96.93;38.08;;;;;;;;;;6296792;28;20043;-62
2022/11/12 06:31:34;;;;;;;91.97;36.92;;;;;;;;;;6287964;28;20098;-61
2022/11/12 06:34:35;;;;;;;108.15;39.55;;;;;;;;;;6292487;28;20076;-62
2022/11/12 06:37:35;;;;;;;94.25;37.53;;;;;;;;;;6292280;28;20495;-62
2022/11/12 06:40:36;;;;;;;96.55;37.03;;;;;;;;;;6294265;28;20044;-61
2022/11/12 06:43:37;;;;;;;91.50;36.35;;;;;;;;;;6292886;28;20056;-61
2022/11/12 06:46:38;;;;;;;95.05;38.40;;;;;;;;;;6301303;28;20475;-62
2022/11/12 06:49:38;;;;;;;97.22;36.33;;;;;;;;;;6319693;28;20071;-62
2022/11/12 06:52:39;;;;;;;99.40;36.97;;;;;;;;;;6301891;28;20053;-61
2022/11/12 06:55:39;;;;;;;94.20;35.85;;;;;;;;;;6301992;28;20064;-61
2022/11/12 06:58:40;;;;;;;86.63;35.10;;;;;;;;;;6303154;28;20055;-62
2022/11/12 07:01:41;;;;;;;100.97;36.30;;;;;;;;;;6308341;28;20528;-66
2022/11/12 07:04:41;;;;;;;97.18;37.97;;;;;;;;;;6295272;28;20041;-63
2022/11/12 07:07:42;;;;;;;101.95;38.13;;;;;;;;;;6294206;28;20090;-66
2022/11/12 07:10:43;;;;;;;101.20;40.78;;;;;;;;;;6308196;28;20463;-62
2022/11/12 07:13:44;;;;;;;116.07;42.78;;;;;;;;;;6291625;28;20448;-60
2022/11/12 07:16:45;;;;;;;158.95;52.05;;;;;;;;;;6295613;28;20501;-64
2022/11/12 07:19:46;;;;;;;187.43;62.17;;;;;;;;;;6295898;28;20132;-60
2022/11/12 07:22:46;;;;;;;117.13;44.47;;;;;;;;;;6318974;28;20398;-61
2022/11/12 07:25:55;;;;;;;113.90;45.85;;;;;;;;;;6302938;28;20090;-61
2022/11/12 07:28:55;;;;;;;107.05;42.10;;;;;;;;;;6298745;28;20055;-60
2022/11/12 07:31:56;;;;;;;117.30;45.72;;;;;;;;;;6291792;28;20041;-61
2022/11/12 07:34:56;;;;;;;119.05;44.75;;;;;;;;;;6298597;28;20048;-61
2022/11/12 07:37:57;;;;;;;136.82;50.53;;;;;;;;;;6291350;28;20052;-61
2022/11/12 07:41:06;;;;;;;129.50;48.97;;;;;;;;;;6318243;28;20735;-62
2022/11/12 07:44:07;;;;;;;125.57;50.80;;;;;;;;;;6293497;28;20143;-63
2022/11/12 07:47:07;;;;;;;156.85;57.58;;;;;;;;;;6294307;28;20045;-63
2022/11/12 07:50:08;;;;;;;174.52;64.15;;;;;;;;;;6286803;28;20048;-61
2022/11/12 07:53:09;;;;;;;166.18;62.75;;;;;;;;;;6294483;28;20399;-63
2022/11/12 07:56:11;;;;;;;169.85;63.95;;;;;;;;;;6316063;28;20163;-62
2022/11/12 07:59:12;;;;;;;175.68;60.63;;;;;;;;;;6318027;28;20047;-63
2022/11/12 08:02:13;;;;;;;165.00;60.00;;;;;;;;;;6316961;28;20059;-61
2022/11/12 08:05:13;;;;;;;255.82;89.15;;;;;;;;;;6318200;28;20052;-62
2022/11/12 08:08:14;;;;;;;249.80;85.80;;;;;;;;;;6317955;28;20040;-62
2022/11/12 08:11:14;;;;;;;208.55;75.45;;;;;;;;;;6316920;28;20047;-62
2022/11/12 08:14:15;;;;;;;175.70;63.42;;;;;;;;;;6314633;28;20134;-61
2022/11/12 08:17:15;;;;;;;174.50;68.93;;;;;;;;;;6314559;28;20376;-62
2022/11/12 08:20:16;;;;;;;184.30;71.13;;;;;;;;;;6317118;28;20096;-61
2022/11/12 08:23:17;;;;;;;161.00;64.78;;;;;;;;;;6316829;28;20042;-62
2022/11/12 08:26:19;;;;;;;150.60;60.83;;;;;;;;;;6318355;28;20164;-61
2022/11/12 08:29:19;;;;;;;139.07;54.85;;;;;;;;;;6307662;28;20055;-63
2022/11/12 08:32:20;;;;;;;141.18;52.08;;;;;;;;;;6316382;28;20039;-61
2022/11/12 08:35:20;;;;;;;126.47;49.17;;;;;;;;;;6317108;28;20040;-66
2022/11/12 08:38:21;;;;;;;133.40;54.97;;;;;;;;;;6317674;28;20056;-62
2022/11/12 08:41:22;;;;;;;102.03;39.15;;;;;;;;;;6313572;28;20467;-65
2022/11/12 08:44:22;;;;;;;92.75;34.95;;;;;;;;;;6305768;28;20593;-62
2022/11/12 08:47:23;;;;;;;64.40;27.17;;;;;;;;;;6315136;28;20052;-65
2022/11/12 08:50:23;;;;;;;56.20;21.65;;;;;;;;;;6315555;28;20204;-62
2022/11/12 08:53:24;;;;;;;51.97;20.08;;;;;;;;;;6316184;28;20048;-62
2022/11/12 08:56:24;;;;;;;53.22;21.55;;;;;;;;;;6316477;28;20060;-61
2022/11/12 08:59:25;;;;;;;55.08;21.02;;;;;;;;;;6315595;28;20047;-61
2022/11/12 09:02:26;;;;;;;52.00;19.55;;;;;;;;;;6316109;28;20063;-62
2022/11/12 09:05:27;;;;;;;55.10;21.73;;;;;;;;;;6317665;28;20048;-61
2022/11/12 09:08:28;;;;;;;55.15;20.98;;;;;;;;;;6317016;28;20639;-62
2022/11/12 09:11:28;;;;;;;49.50;21.15;;;;;;;;;;6316263;28;20060;-62
2022/11/12 09:14:29;;;;;;;44.13;19.02;;;;;;;;;;6315972;28;20160;-61
2022/11/12 09:17:31;;;;;;;44.80;17.88;;;;;;;;;;6314860;28;20536;-62
2022/11/12 09:20:32;;;;;;;50.10;18.67;;;;;;;;;;6314092;28;20052;-61
2022/11/12 09:23:33;;;;;;;50.55;20.13;;;;;;;;;;6314888;28;20052;-64
2022/11/12 09:26:34;;;;;;;50.75;20.23;;;;;;;;;;6316099;28;20063;-69
2022/11/12 09:29:35;;;;;;;41.47;18.58;;;;;;;;;;6315065;28;20051;-62
2022/11/12 09:32:36;;;;;;;44.17;17.77;;;;;;;;;;6315854;28;20490;-61
2022/11/12 09:35:36;;;;;;;45.15;17.10;;;;;;;;;;6316994;28;20048;-67
2022/11/12 09:38:37;;;;;;;37.75;15.27;;;;;;;;;;6309163;28;20111;-65
2022/11/12 09:41:41;;;;;;;45.30;17.70;;;;;;;;;;6305870;28;20048;-61
2022/11/12 09:44:48;;;;;;;47.33;17.42;;;;;;;;;;6312709;28;20378;-62
2022/11/12 09:47:57;;;;;;;37.60;15.48;;;;;;;;;;6310226;28;20044;-63
2022/11/12 09:51:05;;;;;;;37.55;14.45;;;;;;;;;;6307932;28;20127;-62
2022/11/12 09:54:17;;;;;;;39.55;14.40;;;;;;;;;;6285482;28;20044;-62
2022/11/12 09:57:18;;;;;;;39.97;15.65;;;;;;;;;;6319444;28;20483;-63
2022/11/12 10:00:20;;;;;;;32.65;15.35;;;;;;;;;;6319138;28;20046;-68
2022/11/12 10:03:38;;;;;;;37.00;13.93;;;;;;;;;;6300859;28;20046;-64
2022/11/12 10:06:56;;;;;;;38.60;15.27;;;;;;;;;;6284290;28;20267;-65
2022/11/12 10:10:12;;;;;;;36.58;15.35;;;;;;;;;;6286933;28;20423;-63
2022/11/12 10:13:36;;;;;;;38.60;14.70;;;;;;;;;;6288219;28;20052;-63
2022/11/12 10:16:47;;;;;;;32.58;12.20;;;;;;;;;;6281365;28;20529;-64
2022/11/12 10:20:08;;;;;;;32.72;12.48;;;;;;;;;;6287812;28;20205;-63
2022/11/12 10:23:23;;;;;;;29.73;11.95;;;;;;;;;;6289565;28;20048;-62
2022/11/12 10:26:24;;;;;;;31.00;11.00;;;;;;;;;;6288620;28;20106;-63
2022/11/12 10:29:44;;;;;;;37.33;12.35;;;;;;;;;;6271793;28;20053;-62
2022/11/12 10:32:47;;;;;;;36.42;13.50;;;;;;;;;;6289459;28;20411;-63
2022/11/12 10:35:48;;;;;;;34.63;14.40;;;;;;;;;;6287879;28;20609;-62
2022/11/12 10:38:52;;;;;;;24.25;9.35;;;;;;;;;;6289726;28;20052;-62
2022/11/12 10:42:07;;;;;;;26.52;10.27;;;;;;;;;;6284918;28;21473;-63
2022/11/12 10:45:33;;;;;;;31.30;10.57;;;;;;;;;;6285137;28;20040;-62
2022/11/12 10:48:35;;;;;;;29.75;11.65;;;;;;;;;;6266304;28;20049;-64
2022/11/12 10:51:36;;;;;;;30.65;10.80;;;;;;;;;;6285113;28;20388;-65
2022/11/12 10:54:37;;;;;;;29.27;10.50;;;;;;;;;;6285684;28;20045;-65
2022/11/12 10:57:38;;;;;;;27.92;9.82;;;;;;;;;;6284359;28;20072;-62
2022/11/12 11:01:02;;;;;;;25.38;9.38;;;;;;;;;;6285835;28;20086;-63
2022/11/12 11:04:02;;;;;;;25.65;9.25;;;;;;;;;;6285315;28;20133;-66
2022/11/12 11:07:05;;;;;;;23.20;8.90;;;;;;;;;;6283904;28;20441;-63
2022/11/12 11:10:28;;;;;;;26.95;9.95;;;;;;;;;;6286112;28;20052;-61
2022/11/12 11:13:29;;;;;;;27.50;9.30;;;;;;;;;;6286004;28;20263;-63
2022/11/12 11:16:30;;;;;;;21.92;9.77;;;;;;;;;;6282725;28;20056;-62
2022/11/12 11:19:37;;;;;;;25.73;9.77;;;;;;;;;;6285950;28;20052;-62
2022/11/12 11:22:43;;;;;;;23.98;9.13;;;;;;;;;;6284421;28;20529;-62
2022/11/12 11:25:46;;;;;;;25.05;8.73;;;;;;;;;;6281979;28;20471;-62
2022/11/12 11:28:57;;;;;;;21.92;8.73;;;;;;;;;;6285204;28;20660;-62
2022/11/12 11:32:10;;;;;;;21.20;8.93;;;;;;;;;;6285880;28;20412;-62
2022/11/12 11:35:20;;;;;;;18.17;8.88;;;;;;;;;;6284315;28;20097;-63
2022/11/12 11:38:48;;;;;;;25.23;10.07;;;;;;;;;;6283102;28;20499;-62
2022/11/12 11:42:07;;;;;;;26.42;10.55;;;;;;;;;;6287356;28;20056;-63
2022/11/12 11:45:26;;;;;;;25.33;10.82;;;;;;;;;;6288460;28;20044;-62
2022/11/12 11:48:48;;;;;;;26.02;10.18;;;;;;;;;;6287657;28;20067;-62
2022/11/12 11:51:59;;;;;;;;;;;;;;;;;;6285864;28;20074;-62
2022/11/12 11:56:00;;;;;;;24.83;9.57;;;;;;;;;;6286287;28;20335;-61
2022/11/12 11:59:22;;;;;;;27.20;9.43;;;;;;;;;;6207476;28;20094;-62
2022/11/12 12:02:45;;;;;;;24.73;10.00;;;;;;;;;;6217768;28;20086;-62
2022/11/12 12:06:14;;;;;;;28.33;10.70;;;;;;;;;;6282988;28;20715;-63
2022/11/12 12:09:26;;;;;;;28.25;11.55;;;;;;;;;;6285370;28;20049;-63
2022/11/12 12:12:36;;;;;;;;;;;;;;;;;;6283600;28;20049;-63
2022/11/12 12:15:52;;;;;;;29.65;12.35;;;;;;;;;;6281356;28;19924;-63
2022/11/12 12:19:17;;;;;;;25.02;11.07;;;;;;;;;;6282641;28;20469;-63
2022/11/12 12:22:40;;;;;;;26.63;11.55;;;;;;;;;;6283803;28;20080;-68
2022/11/12 12:25:44;;;;;;;30.05;11.63;;;;;;;;;;6278795;28;20114;-65
2022/11/12 12:28:48;;;;;;;30.02;12.55;;;;;;;;;;6284174;28;20123;-65
2022/11/12 12:31:54;;;;;;;28.17;11.80;;;;;;;;;;6282925;28;20056;-65
2022/11/12 12:35:06;;;;;;;30.75;11.75;;;;;;;;;;6282541;28;20048;-67
2022/11/12 12:38:27;;;;;;;31.75;12.07;;;;;;;;;;6280516;28;20418;-67
2022/11/12 12:42:17;;;;;;;25.02;12.05;;;;;;;;;;6282256;28;20182;-65
2022/11/12 12:45:25;;;;;;;31.23;12.93;;;;;;;;;;6213056;28;20140;-64
2022/11/12 12:48:34;;;;;;;25.50;11.48;;;;;;;;;;6282886;28;20053;-66
2022/11/12 12:51:34;;;;;;;36.15;13.80;;;;;;;;;;6263822;28;20066;-65
2022/11/12 12:54:51;;;;;;;29.45;12.95;;;;;;;;;;6283784;28;20049;-66
2022/11/12 12:57:58;;;;;;;29.98;13.20;;;;;;;;;;6280248;28;20071;-66
2022/11/12 13:00:58;;;;;;;26.85;12.57;;;;;;;;;;6284965;28;20134;-67
2022/11/12 13:04:02;;;;;;;32.53;13.02;;;;;;;;;;6286060;28;20101;-67
2022/11/12 13:07:02;;;;;;;28.42;12.70;;;;;;;;;;6282500;28;20173;-64
2022/11/12 13:10:33;;;;;;;30.27;12.93;;;;;;;;;;6285106;28;20561;-64
2022/11/12 13:13:36;;;;;;;31.83;12.98;;;;;;;;;;6282384;28;20060;-63
2022/11/12 13:16:49;;;;;;;26.40;12.18;;;;;;;;;;6280806;28;20040;-65
2022/11/12 13:19:53;;;;;;;27.30;11.63;;;;;;;;;;6283382;28;20088;-65
2022/11/12 13:22:53;;;;;;;25.13;10.82;;;;;;;;;;6281153;28;20161;-65
2022/11/12 13:26:33;;;;;;;28.70;12.85;;;;;;;;;;6279741;28;20036;-65
2022/11/12 13:29:36;;;;;;;26.40;10.75;;;;;;;;;;6287499;28;20045;-65
2022/11/12 13:32:46;;;;;;;24.40;10.48;;;;;;;;;;6289079;28;20056;-65
2022/11/12 13:35:47;;;;;;;25.10;10.65;;;;;;;;;;6285760;28;20627;-65
2022/11/12 13:38:48;;;;;;;29.70;12.57;;;;;;;;;;6286218;28;20053;-65
2022/11/12 13:45:19;;;;;;;23.45;9.85;;;;;;;;;;6286818;28;20047;-65
2022/11/12 13:48:31;;;;;;;25.05;10.13;;;;;;;;;;6286230;28;20056;-65
2022/11/12 13:51:44;;;;;;;23.80;10.23;;;;;;;;;;6288076;28;20079;-65
2022/11/12 13:54:44;;;;;;;24.38;10.32;;;;;;;;;;6286803;28;20312;-65
2022/11/12 13:57:52;;;;;;;23.63;9.55;;;;;;;;;;6286799;28;20812;-65
2022/11/12 14:00:55;;;;;;;24.38;10.32;;;;;;;;;;6287273;28;20059;-65
2022/11/12 14:03:56;;;;;;;25.10;9.88;;;;;;;;;;6290121;28;20178;-66
2022/11/12 14:07:18;;;;;;;26.00;9.85;;;;;;;;;;6284755;28;20150;-66
2022/11/12 14:10:53;;;;;;;22.27;9.48;;;;;;;;;;6287617;28;20052;-66
2022/11/12 14:14:26;;;;;;;24.45;9.55;;;;;;;;;;6259817;28;20172;-67
2022/11/12 14:17:52;;;;;;;16.33;8.02;;;;;;;;;;6277441;28;20208;-64
2022/11/12 14:20:53;;;;;;;23.35;9.00;;;;;;;;;;6287056;28;20068;-65
2022/11/12 14:23:54;;;;;;;23.02;9.27;;;;;;;;;;6286863;28;20064;-66
2022/11/12 14:26:55;;;;;;;18.55;8.45;;;;;;;;;;6284059;28;20052;-65
2022/11/12 14:30:11;;;;;;;28.17;8.70;;;;;;;;;;6286385;28;20397;-65
2022/11/12 14:33:19;;;;;;;24.25;9.10;;;;;;;;;;6286260;28;20132;-66
2022/11/12 14:36:21;;;;;;;20.70;9.10;;;;;;;;;;6285362;28;20049;-66
2022/11/12 14:39:29;;;;;;;21.38;8.43;;;;;;;;;;6285179;28;20067;-66
2022/11/12 14:42:32;;;;;;;19.63;9.13;;;;;;;;;;6287189;28;20048;-65
2022/11/12 14:45:33;;;;;;;19.33;8.48;;;;;;;;;;6285014;28;20097;-65
2022/11/12 14:48:45;;;;;;;22.45;8.32;;;;;;;;;;6285717;28;20044;-66
2022/11/12 14:51:48;;;;;;;18.50;8.25;;;;;;;;;;6280189;28;20052;-64
2022/11/12 14:54:53;;;;;;;20.27;8.60;;;;;;;;;;6287144;28;20045;-66
2022/11/12 14:57:57;;;;;;;19.63;7.60;;;;;;;;;;6286357;28;20143;-66
2022/11/12 15:01:19;;;;;;;21.02;7.75;;;;;;;;;;6285906;28;20143;-67
2022/11/12 15:04:23;;;;;;;22.15;7.95;;;;;;;;;;6283568;28;20041;-66
2022/11/12 15:07:24;;;;;;;20.05;7.85;;;;;;;;;;6286752;28;20184;-65
2022/11/12 15:10:43;;;;;;;19.13;8.00;;;;;;;;;;6288117;28;20149;-66
2022/11/12 15:13:45;;;;;;;25.38;9.10;;;;;;;;;;6284618;28;20058;-63
2022/11/12 15:16:46;;;;;;;30.38;10.95;;;;;;;;;;6286285;28;20036;-66
2022/11/12 15:19:47;;;;;;;52.00;13.88;;;;;;;;;;6288003;28;20044;-68
2022/11/12 15:22:49;;;;;;;65.90;17.17;;;;;;;;;;6285920;28;20055;-68
2022/11/12 15:25:58;;;;;;;48.47;16.15;;;;;;;;;;6284075;28;20049;-64
2022/11/12 15:29:11;;;;;;;50.08;16.20;;;;;;;;;;6288208;28;20857;-64
2022/11/12 15:32:12;;;;;;;62.53;18.20;;;;;;;;;;6287241;28;20132;-64
2022/11/12 15:35:45;;;;;;;70.82;20.50;;;;;;;;;;6284428;28;20850;-64
2022/11/12 15:38:48;;;;;;;73.28;22.83;;;;;;;;;;6284939;28;20061;-65
2022/11/12 15:41:57;;;;;;;88.68;27.33;;;;;;;;;;6284887;28;20053;-65
2022/11/12 15:45:00;;;;;;;79.80;28.88;;;;;;;;;;6285494;28;20044;-66
2022/11/12 15:48:01;;;;;;;88.85;31.02;;;;;;;;;;6282089;28;20060;-64
2022/11/12 15:51:02;;;;;;;88.82;35.03;;;;;;;;;;6283512;28;20707;-67
2022/11/12 15:54:02;;;;;;;93.30;35.15;;;;;;;;;;6268047;28;20053;-60
2022/11/12 15:57:03;;;;;;;80.78;31.05;;;;;;;;;;6281073;28;20053;-61
2022/11/12 16:00:12;;;;;;;88.05;35.22;;;;;;;;;;6284198;28;20064;-62
2022/11/12 16:03:17;;;;;;;112.35;45.17;;;;;;;;;;6285820;28;20036;-61
2022/11/12 16:06:18;;;;;;;134.18;51.38;;;;;;;;;;6279532;28;20044;-72
2022/11/12 16:09:18;;;;;;;107.00;43.25;;;;;;;;;;6284182;28;20098;-63
2022/11/12 16:12:19;;;;;;;113.78;50.28;;;;;;;;;;6285099;28;20135;-62
2022/11/12 16:15:24;;;;;;;119.40;48.20;;;;;;;;;;6282809;28;20101;-62
2022/11/12 16:18:24;;;;;;;127.68;50.72;;;;;;;;;;6282676;28;20787;-62
2022/11/12 16:21:25;;;;;;;139.00;54.78;;;;;;;;;;6284579;28;20044;-61
2022/11/12 16:24:26;;;;;;;119.72;49.58;;;;;;;;;;6286053;28;20113;-61
2022/11/12 16:27:26;;;;;;;129.55;47.35;;;;;;;;;;6280764;28;20078;-62
2022/11/12 16:30:30;;;;;;;131.70;50.75;;;;;;;;;;6283024;28;20525;-61
2022/11/12 16:33:30;;;;;;;138.77;60.75;;;;;;;;;;6284304;28;20056;-61
2022/11/12 16:36:31;;;;;;;164.00;61.47;;;;;;;;;;6279177;28;20080;-62
2022/11/12 16:39:31;;;;;;;163.85;69.20;;;;;;;;;;6283496;28;20110;-61
2022/11/12 16:42:33;;;;;;;171.65;68.28;;;;;;;;;;6283379;28;20505;-61
2022/11/12 16:45:37;;;;;;;142.52;60.40;;;;;;;;;;6281919;28;20113;-67
2022/11/12 16:48:38;;;;;;;139.80;55.65;;;;;;;;;;6282207;28;20051;-65
2022/11/12 16:51:40;;;;;;;142.95;59.53;;;;;;;;;;6283754;28;20052;-64
2022/11/12 16:54:40;;;;;;;128.15;48.38;;;;;;;;;;6282306;28;20054;-63
2022/11/12 16:57:44;;;;;;;133.25;51.90;;;;;;;;;;6277608;28;20060;-61
2022/11/12 17:00:48;;;;;;;132.52;51.40;;;;;;;;;;6282802;28;20063;-62
2022/11/12 17:03:50;;;;;;;121.40;49.42;;;;;;;;;;6284442;28;20045;-58
2022/11/12 17:06:51;;;;;;;126.03;51.20;;;;;;;;;;6280282;28;20060;-61
2022/11/12 17:09:51;;;;;;;115.28;49.78;;;;;;;;;;6281652;28;20612;-62
2022/11/12 17:12:52;;;;;;;122.50;47.47;;;;;;;;;;6283493;28;20044;-62
2022/11/12 17:15:57;;;;;;;111.13;45.63;;;;;;;;;;6281198;28;20074;-58
2022/11/12 17:19:00;;;;;;;118.47;47.17;;;;;;;;;;6281855;28;20057;-58
2022/11/12 17:22:00;;;;;;;100.75;42.50;;;;;;;;;;6282472;28;20472;-58
2022/11/12 17:25:01;;;;;;;108.25;40.75;;;;;;;;;;6282483;28;20166;-60
2022/11/12 17:28:02;;;;;;;103.07;41.30;;;;;;;;;;6279435;28;21321;-61
2022/11/12 17:31:09;;;;;;;101.43;39.03;;;;;;;;;;6282235;28;20102;-57
2022/11/12 17:34:10;;;;;;;94.90;37.60;;;;;;;;;;6291829;28;20135;-58
2022/11/12 17:37:11;;;;;;;118.72;44.63;;;;;;;;;;6299409;28;20696;-57
2022/11/12 17:40:11;;;;;;;127.00;51.53;;;;;;;;;;6292898;28;20075;-58
2022/11/12 17:43:12;;;;;;;132.07;52.92;;;;;;;;;;6290004;28;20131;-58
2022/11/12 17:46:13;;;;;;;132.13;52.83;;;;;;;;;;6291616;28;20045;-58
2022/11/12 17:49:15;;;;;;;128.48;52.63;;;;;;;;;;6290353;28;20051;-54
2022/11/12 17:52:15;;;;;;;148.77;56.80;;;;;;;;;;6290162;28;20079;-57
2022/11/12 17:55:16;;;;;;;148.05;57.75;;;;;;;;;;6287774;28;20044;-58
2022/11/12 17:58:16;;;;;;;140.15;52.67;;;;;;;;;;6286381;28;20056;-58
2022/11/12 18:01:21;;;;;;;133.48;50.38;;;;;;;;;;6289768;28;20159;-59
2022/11/12 18:04:22;;;;;;;142.52;55.45;;;;;;;;;;6286457;28;20063;-55
2022/11/12 18:07:22;;;;;;;139.30;54.92;;;;;;;;;;6288554;28;20506;-57
2022/11/12 18:10:23;;;;;;;140.55;53.75;;;;;;;;;;6288509;28;20086;-61
2022/11/12 18:13:25;;;;;;;140.73;52.90;;;;;;;;;;6297068;28;20071;-59